Time;durP1;ratioP1;P1;durP2;ratioP2;P2;SDS_P1;SDS_P2;PMS_P1;PMS_P2;Temp;Humidity;BMP_temperature;BMP_pressure;BME280_temperature;BME280_humidity;BME280_pressure;Samples;Min_cycle;Max_cycle;Signal;HPM_P1;HPM_P2
2022/01/17 00:00:31;;;;;;;36.13;24.77;;;1.60;99.90;;;;;;5096256;28;20551;-75
2022/01/17 00:02:59;;;;;;;34.80;24.13;;;1.60;99.90;;;;;;5096532;28;20283;-74
2022/01/17 00:05:26;;;;;;;38.83;24.47;;;1.60;99.90;;;;;;5096452;28;20223;-75
2022/01/17 00:07:53;;;;;;;36.53;25.40;;;1.60;99.90;;;;;;5096124;28;20253;-75
2022/01/17 00:10:21;;;;;;;39.10;26.90;;;1.60;99.90;;;;;;5096091;28;20282;-75
2022/01/17 00:12:51;;;;;;;39.70;26.47;;;1.60;99.90;;;;;;5099727;28;20207;-76
2022/01/17 00:15:24;;;;;;;41.13;27.30;;;1.60;99.90;;;;;;5096129;28;20741;-76
2022/01/17 00:17:57;;;;;;;40.53;27.00;;;1.60;99.90;;;;;;5105817;28;20199;-76
2022/01/17 00:20:26;;;;;;;44.37;27.90;;;1.60;99.90;;;;;;5116527;28;20295;-75
2022/01/17 00:22:54;;;;;;;46.50;28.97;;;1.50;99.90;;;;;;5116531;28;20206;-75
2022/01/17 00:25:22;;;;;;;46.67;30.20;;;1.50;99.90;;;;;;5116235;28;20613;-74
2022/01/17 00:27:49;;;;;;;42.13;27.37;;;1.50;99.90;;;;;;5116415;28;20198;-74
2022/01/17 00:30:15;;;;;;;43.97;29.10;;;1.50;99.90;;;;;;5115405;28;20234;-74
2022/01/17 00:32:42;;;;;;;44.73;27.60;;;1.50;99.90;;;;;;5116121;28;20559;-74
2022/01/17 00:35:10;;;;;;;48.13;30.90;;;1.50;99.90;;;;;;5115900;28;20191;-76
2022/01/17 00:37:36;;;;;;;49.40;30.57;;;1.40;99.90;;;;;;5115911;28;20236;-75
2022/01/17 00:40:05;;;;;;;46.43;30.57;;;1.40;99.90;;;;;;5116306;28;20601;-74
2022/01/17 00:42:33;;;;;;;48.50;31.37;;;1.40;99.90;;;;;;5116063;28;20605;-75
2022/01/17 00:45:01;;;;;;;48.43;31.00;;;1.40;99.90;;;;;;5115709;28;20569;-74
2022/01/17 00:47:28;;;;;;;47.87;30.77;;;1.40;99.90;;;;;;5116016;28;20206;-74
2022/01/17 00:49:54;;;;;;;50.87;31.13;;;1.40;99.90;;;;;;5115842;28;20248;-75
2022/01/17 00:52:21;;;;;;;52.67;31.93;;;1.40;99.90;;;;;;5115597;28;20671;-75
2022/01/17 00:54:48;;;;;;;50.67;30.40;;;1.30;99.90;;;;;;5115710;28;20708;-74
2022/01/17 00:57:14;;;;;;;52.07;31.93;;;1.40;99.90;;;;;;5115460;28;20628;-74
2022/01/17 00:59:42;;;;;;;49.73;29.90;;;1.30;99.90;;;;;;5115765;28;20196;-74
2022/01/17 01:02:09;;;;;;;52.40;31.20;;;1.30;99.90;;;;;;5115798;28;20602;-75
2022/01/17 01:04:36;;;;;;;53.07;32.00;;;1.30;99.90;;;;;;5115562;28;20651;-75
2022/01/17 01:07:03;;;;;;;52.70;33.03;;;1.30;99.90;;;;;;5118033;28;20207;-75
2022/01/17 01:09:35;;;;;;;49.60;29.77;;;1.30;99.90;;;;;;5117818;28;20280;-74
2022/01/17 01:12:01;;;;;;;54.00;31.30;;;1.30;99.90;;;;;;5115907;28;20192;-75
2022/01/17 01:14:28;;;;;;;50.43;30.57;;;1.30;99.90;;;;;;5115380;28;20200;-75
2022/01/17 01:16:57;;;;;;;50.63;30.33;;;1.40;99.90;;;;;;5115684;28;20227;-75
2022/01/17 01:19:31;;;;;;;49.97;30.17;;;1.30;99.90;;;;;;5115265;28;20203;-75
2022/01/17 01:30:23;;;;;;;48.53;30.37;;;1.20;99.90;;;;;;5114659;28;20240;-75
2022/01/17 01:32:54;;;;;;;48.47;29.97;;;1.20;99.90;;;;;;5114935;28;20659;-75
2022/01/17 01:35:23;;;;;;;56.43;32.03;;;1.30;99.90;;;;;;5114852;28;20234;-75
2022/01/17 01:37:50;;;;;;;49.17;30.47;;;1.30;99.90;;;;;;5115290;28;20191;-75
2022/01/17 01:40:18;;;;;;;48.97;31.17;;;1.30;99.90;;;;;;5114768;28;20540;-75
2022/01/17 01:42:46;;;;;;;53.27;32.70;;;1.20;99.90;;;;;;5115281;28;20195;-75
2022/01/17 01:45:14;;;;;;;53.30;31.93;;;1.20;99.90;;;;;;5114863;28;20203;-75
2022/01/17 01:47:42;;;;;;;49.20;29.90;;;1.30;99.90;;;;;;5114902;28;20241;-75
2022/01/17 01:50:12;;;;;;;49.63;30.07;;;1.20;99.90;;;;;;5114830;28;20256;-75
2022/01/17 01:52:41;;;;;;;56.53;32.73;;;1.20;99.90;;;;;;5114907;28;20199;-75
2022/01/17 01:55:10;;;;;;;51.40;29.73;;;1.20;99.90;;;;;;5114770;28;20278;-75
2022/01/17 01:57:37;;;;;;;49.13;30.10;;;1.20;99.90;;;;;;5114562;28;20273;-75
2022/01/17 02:00:06;;;;;;;52.83;31.60;;;1.20;99.90;;;;;;5114659;28;20647;-75
2022/01/17 02:02:33;;;;;;;51.23;30.43;;;1.20;99.90;;;;;;5118585;28;20252;-75
2022/01/17 02:04:59;;;;;;;49.17;30.67;;;1.20;99.90;;;;;;5114997;28;20590;-75
2022/01/17 02:07:27;;;;;;;54.57;32.33;;;1.20;99.90;;;;;;5114452;28;20229;-75
2022/01/17 02:09:54;;;;;;;54.87;31.67;;;1.20;99.90;;;;;;5114552;28;20257;-75
2022/01/17 02:12:22;;;;;;;49.93;32.07;;;1.20;99.90;;;;;;5114515;28;20198;-75
2022/01/17 02:14:50;;;;;;;49.67;30.73;;;1.20;99.90;;;;;;5116093;28;20199;-75
2022/01/17 02:17:19;;;;;;;51.43;32.10;;;1.20;99.90;;;;;;5116097;28;20683;-75
2022/01/17 02:19:47;;;;;;;52.13;31.40;;;1.20;99.90;;;;;;5114605;28;20195;-75
2022/01/17 02:22:15;;;;;;;51.93;32.17;;;1.20;99.90;;;;;;5115856;28;20291;-75
2022/01/17 02:24:42;;;;;;;53.73;30.57;;;1.20;99.90;;;;;;5114926;28;20195;-75
2022/01/17 02:27:09;;;;;;;53.00;30.57;;;1.20;99.90;;;;;;5114246;28;20199;-75
2022/01/17 02:29:36;;;;;;;47.57;30.73;;;1.20;99.90;;;;;;5114875;28;20207;-75
2022/01/17 02:32:03;;;;;;;50.17;32.20;;;1.20;99.90;;;;;;5114853;28;20199;-75
2022/01/17 02:34:29;;;;;;;62.63;32.50;;;1.20;99.90;;;;;;5115436;28;20241;-75
2022/01/17 02:36:56;;;;;;;55.50;33.00;;;1.20;99.90;;;;;;5115054;28;20755;-75
2022/01/17 02:39:24;;;;;;;53.13;32.53;;;1.20;99.90;;;;;;5114338;28;20191;-75
2022/01/17 02:41:51;;;;;;;56.37;33.17;;;1.20;99.90;;;;;;5114372;28;20229;-75
2022/01/17 02:44:17;;;;;;;57.40;34.47;;;1.20;99.90;;;;;;5114210;28;20245;-75
2022/01/17 02:46:44;;;;;;;57.00;33.50;;;1.20;99.90;;;;;;5114175;28;20263;-76
2022/01/17 02:49:11;;;;;;;56.77;34.17;;;1.20;99.90;;;;;;5114345;28;20196;-75
2022/01/17 02:51:38;;;;;;;60.47;34.80;;;1.20;99.90;;;;;;5114213;28;20203;-75
2022/01/17 02:54:05;;;;;;;62.93;35.87;;;1.10;99.90;;;;;;5117778;28;20241;-75
2022/01/17 02:56:33;;;;;;;60.33;35.80;;;1.20;99.90;;;;;;5119679;28;20215;-75
2022/01/17 02:59:00;;;;;;;60.40;34.90;;;1.20;99.90;;;;;;5122012;28;20195;-75
2022/01/17 03:01:28;;;;;;;62.37;36.47;;;1.10;99.90;;;;;;5119395;28;20199;-75
2022/01/17 03:03:56;;;;;;;63.20;34.70;;;1.10;99.90;;;;;;5118927;28;20261;-75
2022/01/17 03:06:23;;;;;;;58.20;35.33;;;1.10;99.90;;;;;;5118184;28;20196;-75
2022/01/17 03:08:50;;;;;;;61.03;35.17;;;1.10;99.90;;;;;;5119555;28;20199;-75
2022/01/17 03:11:20;;;;;;;63.23;33.73;;;1.00;99.90;;;;;;5119460;28;20310;-75
2022/01/17 03:13:50;;;;;;;60.90;35.40;;;1.00;99.90;;;;;;5118984;28;20270;-75
2022/01/17 03:16:19;;;;;;;70.13;36.03;;;1.00;99.90;;;;;;5119434;28;20747;-74
2022/01/17 03:18:50;;;;;;;64.47;37.63;;;1.00;99.90;;;;;;5119351;28;20257;-75
2022/01/17 03:21:17;;;;;;;65.77;35.63;;;1.00;99.90;;;;;;5119456;28;20566;-75
2022/01/17 03:23:45;;;;;;;66.43;36.77;;;1.00;99.90;;;;;;5117902;28;20203;-75
2022/01/17 03:26:12;;;;;;;69.13;36.50;;;1.00;99.90;;;;;;5117984;28;20204;-74
2022/01/17 03:28:39;;;;;;;64.33;35.90;;;1.00;99.90;;;;;;5117743;28;20196;-75
2022/01/17 03:31:09;;;;;;;64.33;35.57;;;1.00;99.90;;;;;;5117790;28;20199;-75
2022/01/17 03:33:35;;;;;;;65.07;35.10;;;1.00;99.90;;;;;;5117816;28;20195;-74
2022/01/17 03:36:02;;;;;;;64.97;37.57;;;1.00;99.90;;;;;;5117151;28;20589;-74
2022/01/17 03:38:31;;;;;;;65.07;35.73;;;1.00;99.90;;;;;;5117542;28;20196;-74
2022/01/17 03:40:59;;;;;;;63.33;35.53;;;1.10;99.90;;;;;;5117389;28;20598;-74
2022/01/17 03:43:26;;;;;;;65.97;35.43;;;1.10;99.90;;;;;;5117144;28;20746;-74
2022/01/17 03:45:57;;;;;;;62.30;31.93;;;1.10;99.90;;;;;;5117440;28;20199;-74
2022/01/17 03:48:26;;;;;;;61.13;33.43;;;1.00;99.90;;;;;;5117250;28;20192;-74
2022/01/17 03:50:55;;;;;;;63.03;34.17;;;1.10;99.90;;;;;;5117365;28;20287;-74
2022/01/17 03:53:22;;;;;;;57.13;30.83;;;1.10;99.90;;;;;;5121721;28;20554;-74
2022/01/17 03:55:48;;;;;;;48.20;26.30;;;1.10;99.90;;;;;;5117505;28;20199;-73
2022/01/17 03:58:15;;;;;;;62.43;32.27;;;1.10;99.90;;;;;;5117209;28;20235;-74
2022/01/17 04:00:44;;;;;;;55.03;29.20;;;1.00;99.90;;;;;;5117264;28;20199;-75
2022/01/17 04:03:11;;;;;;;62.70;32.03;;;1.00;99.90;;;;;;5117199;28;20225;-74
2022/01/17 04:05:40;;;;;;;63.57;32.73;;;1.00;99.90;;;;;;5117055;28;20211;-74
2022/01/17 04:08:07;;;;;;;68.23;34.70;;;1.10;99.90;;;;;;5116988;28;20204;-73
2022/01/17 04:10:34;;;;;;;56.70;31.37;;;1.00;99.90;;;;;;5117078;28;20281;-75
2022/01/17 04:13:01;;;;;;;63.33;31.97;;;1.00;99.90;;;;;;5117012;28;20192;-74
2022/01/17 04:15:29;;;;;;;53.33;28.93;;;1.00;99.90;;;;;;5117164;28;20232;-74
2022/01/17 04:17:56;;;;;;;62.93;30.57;;;1.00;99.90;;;;;;5122138;28;20263;-74
2022/01/17 04:20:27;;;;;;;59.07;29.90;;;1.00;99.90;;;;;;5123335;28;20555;-74
2022/01/17 04:22:56;;;;;;;59.03;31.23;;;1.00;99.90;;;;;;5123114;28;20187;-74
2022/01/17 04:25:24;;;;;;;66.03;33.50;;;0.90;99.90;;;;;;5122819;28;20245;-74
2022/01/17 04:27:52;;;;;;;63.47;31.23;;;0.90;99.90;;;;;;5123406;28;20200;-74
2022/01/17 04:30:20;;;;;;;64.50;33.17;;;0.90;99.90;;;;;;5123829;28;20681;-75
2022/01/17 04:32:48;;;;;;;61.47;31.80;;;0.90;99.90;;;;;;5123455;28;20209;-74
2022/01/17 04:35:20;;;;;;;65.03;32.70;;;0.90;99.90;;;;;;5122517;28;20253;-74
2022/01/17 04:37:49;;;;;;;63.83;31.70;;;0.90;99.90;;;;;;5123184;28;20231;-74
2022/01/17 04:40:17;;;;;;;63.13;31.67;;;0.80;99.90;;;;;;5123165;28;20610;-74
2022/01/17 04:42:46;;;;;;;64.57;31.50;;;0.90;99.90;;;;;;5120273;28;20623;-74
2022/01/17 04:45:17;;;;;;;63.97;31.67;;;0.90;99.90;;;;;;5120746;28;20202;-74
2022/01/17 04:47:46;;;;;;;67.27;32.30;;;0.80;99.90;;;;;;5121738;28;20196;-74
2022/01/17 04:50:15;;;;;;;65.17;32.73;;;0.80;99.90;;;;;;5122124;28;20199;-74
2022/01/17 04:52:42;;;;;;;55.37;28.00;;;0.80;99.90;;;;;;5121997;28;20241;-74
2022/01/17 04:55:12;;;;;;;63.40;33.37;;;0.70;99.90;;;;;;5122402;28;20233;-74
2022/01/17 04:57:40;;;;;;;67.03;32.27;;;0.80;99.90;;;;;;5122234;28;20219;-74
2022/01/17 05:00:09;;;;;;;58.80;29.83;;;0.70;99.90;;;;;;5116988;28;20204;-73
2022/01/17 05:02:36;;;;;;;64.70;30.83;;;0.70;99.90;;;;;;5116599;28;20191;-74
2022/01/17 05:05:04;;;;;;;66.97;32.93;;;0.70;99.90;;;;;;5116300;28;20199;-74
2022/01/17 05:07:31;;;;;;;66.57;32.93;;;0.70;99.90;;;;;;5116094;28;20256;-74
2022/01/17 05:09:58;;;;;;;73.30;33.10;;;0.70;99.90;;;;;;5115588;28;20750;-74
2022/01/17 05:12:25;;;;;;;63.50;32.60;;;0.70;99.90;;;;;;5115702;28;20592;-74
2022/01/17 05:14:54;;;;;;;75.10;33.70;;;0.70;99.90;;;;;;5114997;28;20196;-74
2022/01/17 05:17:37;;;;;;;62.47;27.17;;;0.70;99.90;;;;;;5115556;28;20220;-74
2022/01/17 05:20:08;;;;;;;67.80;32.83;;;0.70;99.90;;;;;;5115705;28;20559;-74
2022/01/17 05:22:35;;;;;;;67.63;32.17;;;0.70;99.90;;;;;;5117157;28;20191;-76
2022/01/17 05:25:05;;;;;;;70.70;33.00;;;0.80;99.90;;;;;;5116597;28;20563;-75
2022/01/17 05:27:32;;;;;;;71.87;31.80;;;0.70;99.90;;;;;;5117718;28;20632;-75
2022/01/17 05:30:00;;;;;;;67.63;31.97;;;0.70;99.90;;;;;;5116331;28;20753;-75
2022/01/17 05:32:27;;;;;;;66.37;31.10;;;0.80;99.90;;;;;;5116428;28;20331;-74
2022/01/17 05:34:54;;;;;;;68.60;32.80;;;0.80;99.90;;;;;;5115552;28;20200;-75
2022/01/17 05:37:20;;;;;;;64.53;31.17;;;0.80;99.90;;;;;;5115468;28;20241;-74
2022/01/17 05:39:47;;;;;;;65.50;31.43;;;0.70;99.90;;;;;;5115354;28;20229;-75
2022/01/17 05:42:17;;;;;;;65.20;31.47;;;0.80;99.90;;;;;;5116536;28;20203;-75
2022/01/17 05:44:44;;;;;;;60.37;27.63;;;0.80;99.90;;;;;;5115801;28;20196;-75
2022/01/17 05:47:12;;;;;;;67.53;31.50;;;0.70;99.90;;;;;;5115308;28;20221;-74
2022/01/17 05:49:40;;;;;;;70.80;33.67;;;0.70;99.90;;;;;;5115316;28;20199;-75
2022/01/17 05:52:07;;;;;;;67.97;31.13;;;0.70;99.90;;;;;;5115189;28;20199;-75
2022/01/17 05:54:34;;;;;;;63.10;31.43;;;0.70;99.90;;;;;;5115824;28;20227;-75
2022/01/17 05:57:01;;;;;;;69.47;31.13;;;0.70;99.90;;;;;;5116026;28;20632;-74
2022/01/17 05:59:28;;;;;;;63.33;31.67;;;0.70;99.90;;;;;;5115908;28;20200;-74
2022/01/17 06:01:54;;;;;;;79.63;34.97;;;0.70;99.90;;;;;;5116369;28;20199;-75
2022/01/17 06:04:23;;;;;;;71.00;32.17;;;0.70;99.90;;;;;;5116264;28;20601;-75
2022/01/17 06:06:50;;;;;;;73.33;31.07;;;0.70;99.90;;;;;;5116373;28;20290;-75
2022/01/17 06:09:17;;;;;;;62.40;29.53;;;0.70;99.90;;;;;;5116572;28;20226;-74
2022/01/17 06:11:44;;;;;;;66.40;32.63;;;0.60;99.90;;;;;;5116198;28;20702;-75
2022/01/17 06:14:15;;;;;;;66.13;29.90;;;0.60;99.90;;;;;;5115889;28;20203;-74
2022/01/17 06:16:42;;;;;;;70.67;32.87;;;0.70;99.90;;;;;;5115880;28;20552;-75
2022/01/17 06:19:09;;;;;;;63.60;29.07;;;0.70;99.90;;;;;;5115816;28;20195;-74
2022/01/17 06:21:37;;;;;;;73.60;35.10;;;0.70;99.90;;;;;;5116727;28;20196;-74
2022/01/17 06:24:05;;;;;;;81.50;36.10;;;0.70;99.90;;;;;;5116169;28;20206;-74
2022/01/17 06:26:33;;;;;;;68.90;34.13;;;0.70;99.90;;;;;;5116744;28;20298;-74
2022/01/17 06:28:59;;;;;;;76.30;34.27;;;0.70;99.90;;;;;;5115314;28;20196;-73
2022/01/17 06:31:26;;;;;;;74.37;34.37;;;0.70;99.90;;;;;;5115437;28;20196;-75
2022/01/17 06:33:53;;;;;;;75.50;34.07;;;0.60;99.90;;;;;;5114938;28;20192;-75
2022/01/17 06:36:19;;;;;;;69.40;30.90;;;0.70;99.90;;;;;;5114998;28;20195;-74
2022/01/17 06:38:49;;;;;;;72.80;32.73;;;0.70;99.90;;;;;;5118813;28;20288;-74
2022/01/17 06:41:16;;;;;;;56.10;27.07;;;0.70;99.90;;;;;;5114847;28;20195;-74
2022/01/17 06:43:43;;;;;;;61.33;29.27;;;0.60;99.90;;;;;;5104121;28;20791;-74
2022/01/17 06:46:10;;;;;;;67.50;33.13;;;0.70;99.90;;;;;;5084899;28;20196;-74
2022/01/17 06:48:37;;;;;;;65.90;30.57;;;0.60;99.90;;;;;;5091776;28;20592;-76
2022/01/17 06:51:04;;;;;;;71.43;30.60;;;0.60;99.90;;;;;;5093613;28;20663;-75
2022/01/17 06:53:31;;;;;;;65.40;31.77;;;0.70;99.90;;;;;;5089537;28;20200;-74
2022/01/17 06:56:00;;;;;;;68.07;34.53;;;0.70;99.90;;;;;;5096498;28;20282;-75
2022/01/17 06:58:27;;;;;;;68.03;32.20;;;0.70;99.90;;;;;;5099348;28;20285;-74
2022/01/17 07:00:54;;;;;;;72.40;33.93;;;0.70;99.90;;;;;;5099007;28;20196;-75
2022/01/17 07:03:21;;;;;;;65.00;31.33;;;0.70;99.90;;;;;;5100264;28;20196;-75
2022/01/17 07:05:48;;;;;;;68.70;32.17;;;0.70;99.90;;;;;;5097842;28;20602;-75
2022/01/17 07:08:14;;;;;;;71.40;30.67;;;0.80;99.90;;;;;;5094243;28;20258;-75
2022/01/17 07:10:41;;;;;;;72.13;33.60;;;0.70;99.90;;;;;;5087619;28;20228;-75
2022/01/17 07:13:10;;;;;;;64.30;31.87;;;0.80;99.90;;;;;;5073701;28;20197;-74
2022/01/17 07:15:37;;;;;;;64.53;30.23;;;0.70;99.90;;;;;;5074024;28;20674;-75
2022/01/17 07:18:04;;;;;;;62.53;31.00;;;0.80;99.90;;;;;;5073928;28;20235;-75
2022/01/17 07:20:30;;;;;;;61.47;29.20;;;0.80;99.90;;;;;;5073469;28;20799;-75
2022/01/17 07:22:57;;;;;;;62.80;30.93;;;0.80;99.90;;;;;;5072591;28;20198;-75
2022/01/17 07:25:24;;;;;;;63.37;30.87;;;0.80;99.90;;;;;;5073443;28;20229;-75
2022/01/17 07:27:51;;;;;;;65.37;31.67;;;0.80;99.90;;;;;;5072926;28;20610;-75
2022/01/17 07:30:21;;;;;;;65.07;30.90;;;0.90;99.90;;;;;;5072513;28;20205;-75
2022/01/17 07:32:47;;;;;;;62.43;31.23;;;0.90;99.90;;;;;;5077153;28;20203;-75
2022/01/17 07:35:14;;;;;;;59.33;29.93;;;0.90;99.90;;;;;;5077612;28;20205;-75
2022/01/17 07:37:41;;;;;;;51.23;26.30;;;0.90;99.90;;;;;;5072485;28;20684;-75
2022/01/17 07:40:09;;;;;;;54.23;26.83;;;1.00;99.90;;;;;;5076126;28;20201;-75
2022/01/17 07:42:36;;;;;;;52.73;28.47;;;1.00;99.90;;;;;;5076084;28;20197;-75
2022/01/17 07:45:10;;;;;;;55.83;27.83;;;1.00;99.90;;;;;;5075955;28;20197;-74
2022/01/17 07:47:42;;;;;;;47.30;25.37;;;1.00;99.90;;;;;;5076489;28;20702;-74
2022/01/17 07:50:14;;;;;;;52.70;25.37;;;1.00;99.90;;;;;;5076451;28;20227;-74
2022/01/17 07:52:41;;;;;;;53.77;28.07;;;1.10;99.90;;;;;;5076180;28;20677;-75
2022/01/17 07:55:09;;;;;;;54.07;28.17;;;1.10;99.90;;;;;;5075706;28;20288;-74
2022/01/17 07:57:36;;;;;;;54.27;26.47;;;1.00;99.90;;;;;;5075945;28;20270;-75
2022/01/17 08:00:05;;;;;;;52.43;27.63;;;1.10;99.90;;;;;;5075859;28;20200;-73
2022/01/17 08:02:32;;;;;;;54.50;28.20;;;1.00;99.90;;;;;;5075663;28;20259;-74
2022/01/17 08:05:00;;;;;;;46.93;25.17;;;1.00;99.90;;;;;;5075826;28;20595;-73
2022/01/17 08:07:27;;;;;;;45.97;23.00;;;1.00;99.90;;;;;;5076686;28;20197;-74
2022/01/17 08:09:54;;;;;;;55.50;28.63;;;1.00;99.90;;;;;;5080069;28;20634;-73
2022/01/17 08:12:21;;;;;;;56.50;27.30;;;1.00;99.90;;;;;;5096387;28;20254;-73
2022/01/17 08:14:47;;;;;;;52.60;27.23;;;1.00;99.90;;;;;;5096288;28;20242;-75
2022/01/17 08:17:14;;;;;;;54.33;29.07;;;1.10;99.90;;;;;;5095667;28;20204;-74
2022/01/17 08:19:41;;;;;;;50.10;26.07;;;1.10;99.90;;;;;;5096330;28;20228;-74
2022/01/17 08:22:09;;;;;;;51.23;27.27;;;1.10;99.90;;;;;;5095382;28;20201;-75
2022/01/17 08:24:36;;;;;;;49.57;24.87;;;1.00;99.90;;;;;;5095851;28;20200;-74
2022/01/17 08:27:03;;;;;;;51.13;26.20;;;1.10;99.90;;;;;;5096568;28;20200;-75
2022/01/17 08:29:30;;;;;;;47.20;25.83;;;1.10;99.90;;;;;;5098742;28;20201;-74
2022/01/17 08:31:59;;;;;;;51.70;25.77;;;1.20;99.90;;;;;;5095724;28;20205;-75
2022/01/17 08:34:26;;;;;;;45.00;24.67;;;1.20;99.90;;;;;;5096342;28;20204;-74
2022/01/17 08:36:53;;;;;;;46.90;26.23;;;1.20;99.90;;;;;;5095786;28;20222;-73
2022/01/17 08:39:21;;;;;;;48.97;25.90;;;1.20;99.90;;;;;;5088651;28;20234;-74
2022/01/17 08:41:48;;;;;;;44.73;23.53;;;1.20;99.90;;;;;;5096050;28;20200;-74
2022/01/17 08:44:15;;;;;;;43.17;24.63;;;1.20;99.90;;;;;;5095332;28;20732;-74
2022/01/17 08:46:42;;;;;;;43.87;24.93;;;1.30;99.90;;;;;;5095497;28;20582;-74
2022/01/17 08:49:10;;;;;;;40.17;24.80;;;1.30;99.90;;;;;;5096393;28;20205;-74
2022/01/17 08:51:36;;;;;;;41.23;24.03;;;1.30;99.90;;;;;;5093814;28;20200;-74
2022/01/17 08:54:03;;;;;;;37.80;24.17;;;1.30;99.90;;;;;;5094784;28;20677;-74
2022/01/17 08:56:31;;;;;;;41.63;23.70;;;1.40;99.90;;;;;;5095986;28;20200;-74
2022/01/17 08:58:58;;;;;;;33.87;19.50;;;1.40;99.90;;;;;;5098273;28;20224;-75
2022/01/17 09:01:25;;;;;;;41.30;22.80;;;1.40;99.90;;;;;;5096211;28;20207;-74
2022/01/17 09:03:52;;;;;;;39.83;23.17;;;1.40;99.90;;;;;;5095951;28;20192;-75
2022/01/17 09:06:19;;;;;;;36.73;22.70;;;1.40;99.90;;;;;;5095324;28;20262;-74
2022/01/17 09:08:46;;;;;;;39.07;24.27;;;1.40;99.90;;;;;;5109363;28;20206;-74
2022/01/17 09:11:13;;;;;;;38.83;21.80;;;1.50;99.90;;;;;;5094967;28;20232;-77
2022/01/17 09:13:42;;;;;;;40.00;23.40;;;1.50;99.90;;;;;;5095170;28;20200;-74
2022/01/17 09:16:08;;;;;;;36.97;21.83;;;1.50;99.90;;;;;;5096469;28;20192;-74
2022/01/17 09:18:35;;;;;;;38.50;22.70;;;1.60;99.90;;;;;;5095379;28;20229;-75
2022/01/17 09:21:02;;;;;;;36.53;21.50;;;1.60;99.90;;;;;;5094967;28;20250;-74
2022/01/17 09:23:29;;;;;;;42.37;23.50;;;1.60;99.90;;;;;;5098677;28;20672;-74
2022/01/17 09:25:56;;;;;;;35.27;22.33;;;1.60;99.90;;;;;;5094727;28;20203;-74
2022/01/17 09:28:23;;;;;;;39.93;23.30;;;1.60;99.90;;;;;;5095064;28;20205;-74
2022/01/17 09:30:51;;;;;;;36.67;22.83;;;1.70;99.90;;;;;;5094853;28;20203;-74
2022/01/17 09:33:19;;;;;;;33.97;21.23;;;1.90;99.90;;;;;;5094423;28;20196;-74
2022/01/17 09:35:45;;;;;;;33.47;21.03;;;2.00;99.90;;;;;;5095057;28;20203;-74
2022/01/17 09:38:12;;;;;;;35.50;21.43;;;1.90;99.90;;;;;;5094894;28;20239;-73
2022/01/17 09:40:39;;;;;;;32.13;20.27;;;2.10;99.90;;;;;;5094217;28;20329;-74
2022/01/17 09:43:06;;;;;;;30.57;19.07;;;2.00;99.90;;;;;;5093851;28;20192;-73
2022/01/17 09:45:33;;;;;;;35.50;21.27;;;2.00;99.90;;;;;;5094219;28;20208;-73
2022/01/17 09:48:02;;;;;;;29.73;17.73;;;2.10;99.90;;;;;;5094083;28;20197;-73
2022/01/17 09:50:45;;;;;;;28.27;16.07;;;2.10;99.90;;;;;;5094235;28;20548;-74
2022/01/17 09:53:15;;;;;;;31.83;18.97;;;2.00;99.90;;;;;;5096191;28;20272;-74
2022/01/17 09:55:42;;;;;;;30.50;19.13;;;2.00;99.90;;;;;;5094145;28;20257;-74
2022/01/17 09:58:10;;;;;;;31.97;19.20;;;2.00;99.90;;;;;;5093971;28;20602;-73
2022/01/17 10:00:39;;;;;;;31.07;20.17;;;2.10;99.90;;;;;;5091707;28;20215;-74
2022/01/17 10:03:13;;;;;;;32.43;19.10;;;2.10;99.90;;;;;;5089773;28;20212;-75
2022/01/17 10:05:40;;;;;;;32.83;18.60;;;2.10;99.90;;;;;;5090939;28;20202;-75
2022/01/17 10:08:09;;;;;;;34.43;20.07;;;2.00;99.90;;;;;;5092217;28;20192;-76
2022/01/17 10:10:39;;;;;;;32.07;19.53;;;2.20;99.90;;;;;;5091604;28;20235;-75
2022/01/17 10:13:07;;;;;;;28.97;20.03;;;2.20;99.90;;;;;;5091344;28;20192;-71
2022/01/17 10:15:45;;;;;;;31.77;19.90;;;2.20;99.90;;;;;;5093339;28;20192;-75
2022/01/17 10:18:27;;;;;;;29.80;18.47;;;2.20;99.90;;;;;;5097128;28;20200;-75
2022/01/17 10:20:57;;;;;;;33.23;20.67;;;2.10;99.90;;;;;;5096387;28;20226;-74
2022/01/17 10:23:43;;;;;;;29.37;20.03;;;2.20;99.90;;;;;;5099413;28;20255;-75
2022/01/17 10:26:25;;;;;;;28.33;17.03;;;2.20;99.90;;;;;;5100689;28;20210;-75
2022/01/17 10:34:53;;;;;;;28.47;18.47;;;2.00;99.90;;;;;;5086156;28;20204;-74
2022/01/17 10:37:22;;;;;;;26.50;15.63;;;2.00;99.90;;;;;;5101151;28;20235;-75
2022/01/17 10:39:58;;;;;;;28.23;19.17;;;2.00;99.90;;;;;;5100072;28;20224;-77
2022/01/17 10:42:27;;;;;;;25.87;17.17;;;2.10;99.90;;;;;;5097868;28;20196;-74
2022/01/17 10:44:54;;;;;;;25.73;18.03;;;2.10;99.90;;;;;;5095726;28;20203;-75
2022/01/17 10:47:24;;;;;;;28.40;18.10;;;2.10;99.90;;;;;;5091468;28;20711;-73
2022/01/17 10:49:55;;;;;;;25.53;16.83;;;2.10;99.90;;;;;;5095630;28;20226;-74
2022/01/17 10:52:30;;;;;;;26.50;17.33;;;2.20;99.90;;;;;;5096447;28;20196;-75
2022/01/17 10:54:59;;;;;;;24.10;15.70;;;2.20;99.90;;;;;;5098078;28;20199;-74
2022/01/17 10:57:26;;;;;;;26.57;16.53;;;2.20;99.90;;;;;;5097924;28;20197;-74
2022/01/17 10:59:53;;;;;;;25.43;16.77;;;2.20;99.90;;;;;;5104371;28;20223;-74
2022/01/17 11:02:25;;;;;;;20.10;14.27;;;2.20;99.90;;;;;;5096846;28;20196;-75
2022/01/17 11:04:54;;;;;;;23.20;14.80;;;2.30;99.90;;;;;;5090237;28;20215;-74
2022/01/17 11:07:20;;;;;;;24.90;15.10;;;2.20;99.90;;;;;;5098135;28;20283;-74
2022/01/17 11:09:49;;;;;;;23.73;15.40;;;2.20;99.90;;;;;;5097856;28;20239;-73
2022/01/17 11:12:18;;;;;;;25.53;16.77;;;2.10;99.90;;;;;;5098055;28;20192;-75
2022/01/17 11:14:46;;;;;;;26.93;16.27;;;2.20;99.90;;;;;;5100068;28;20208;-74
2022/01/17 11:17:22;;;;;;;24.00;14.53;;;2.30;99.90;;;;;;5098086;28;20200;-74
2022/01/17 11:20:06;;;;;;;23.03;15.70;;;2.20;99.90;;;;;;5097770;28;20255;-74
2022/01/17 11:22:35;;;;;;;26.60;15.10;;;2.20;99.90;;;;;;5096884;28;20200;-74
2022/01/17 11:25:04;;;;;;;25.30;16.13;;;2.30;99.90;;;;;;5096966;28;20204;-74
2022/01/17 11:27:31;;;;;;;22.40;15.27;;;2.40;99.90;;;;;;5096745;28;20283;-74
2022/01/17 11:29:58;;;;;;;22.87;15.20;;;2.40;99.90;;;;;;5097090;28;20200;-75
2022/01/17 11:32:25;;;;;;;21.73;14.87;;;2.30;99.90;;;;;;5096980;28;20230;-73
2022/01/17 11:34:52;;;;;;;17.93;12.23;;;2.40;99.90;;;;;;5097393;28;20253;-73
2022/01/17 11:37:20;;;;;;;20.70;13.87;;;2.30;99.90;;;;;;5098078;28;20204;-73
2022/01/17 11:39:51;;;;;;;20.10;14.23;;;2.40;99.90;;;;;;5096551;28;20228;-73
2022/01/17 11:42:39;;;;;;;21.00;13.43;;;2.40;99.90;;;;;;5096786;28;20574;-73
2022/01/17 11:45:35;;;;;;;20.27;14.27;;;2.50;99.90;;;;;;5097205;28;20192;-72
2022/01/17 11:48:07;;;;;;;22.10;14.57;;;2.60;99.90;;;;;;5096611;28;20647;-74
2022/01/17 11:50:47;;;;;;;23.70;14.87;;;2.50;99.90;;;;;;5096463;28;20200;-75
2022/01/17 11:53:47;;;;;;;21.60;14.30;;;2.50;99.90;;;;;;5096892;28;20200;-74
2022/01/17 11:56:40;;;;;;;22.47;15.13;;;2.40;99.90;;;;;;5096802;28;20197;-73
2022/01/17 11:59:42;;;;;;;21.27;15.23;;;2.40;99.90;;;;;;5090728;28;20220;-75
2022/01/17 12:02:18;;;;;;;23.70;14.93;;;2.40;99.90;;;;;;5090541;28;20544;-75
2022/01/17 12:05:28;;;;;;;22.13;15.50;;;2.50;99.90;;;;;;5096561;28;20227;-75
2022/01/17 12:07:56;;;;;;;22.43;15.47;;;2.50;99.90;;;;;;5093959;28;20238;-74
2022/01/17 12:10:25;;;;;;;23.53;15.43;;;2.50;99.90;;;;;;5097788;28;20285;-75
2022/01/17 12:13:41;;;;;;;21.83;14.87;;;2.60;99.90;;;;;;5088354;28;20192;-74
2022/01/17 12:16:34;;;;;;;22.30;14.93;;;2.40;99.90;;;;;;5091987;28;20548;-75
2022/01/17 12:19:09;;;;;;;20.07;13.93;;;2.50;99.90;;;;;;5089603;28;20220;-75
2022/01/17 12:21:40;;;;;;;19.57;13.17;;;2.60;99.90;;;;;;5096244;28;20246;-73
2022/01/17 12:24:41;;;;;;;22.60;14.80;;;2.70;99.90;;;;;;5095975;28;20200;-74
2022/01/17 12:27:13;;;;;;;23.20;14.47;;;2.60;99.90;;;;;;5095286;28;20196;-73
2022/01/17 12:29:43;;;;;;;21.57;15.37;;;2.80;99.90;;;;;;5095773;28;20227;-74
2022/01/17 12:32:37;;;;;;;20.03;14.57;;;3.00;99.90;;;;;;5095658;28;20196;-74
2022/01/17 12:35:12;;;;;;;26.83;17.03;;;2.90;99.90;;;;;;5079263;28;20204;-74
2022/01/17 12:37:42;;;;;;;21.23;14.17;;;3.10;99.90;;;;;;5095936;28;20227;-74
2022/01/17 12:40:15;;;;;;;18.57;12.50;;;3.10;99.90;;;;;;5095308;28;20621;-75
2022/01/17 12:42:50;;;;;;;20.93;14.47;;;2.80;99.90;;;;;;5095153;28;20665;-72
2022/01/17 12:45:22;;;;;;;21.77;14.07;;;2.80;99.90;;;;;;5095559;28;20616;-73
2022/01/17 12:47:51;;;;;;;23.67;14.57;;;2.80;99.90;;;;;;5095584;28;20332;-73
2022/01/17 12:50:19;;;;;;;20.80;13.23;;;2.80;99.90;;;;;;5095588;28;20604;-73
2022/01/17 12:52:46;;;;;;;22.50;15.10;;;2.70;99.90;;;;;;5095111;28;20204;-73
2022/01/17 12:55:13;;;;;;;24.97;15.43;;;2.70;99.90;;;;;;5095354;28;20764;-73
2022/01/17 12:57:41;;;;;;;22.27;14.60;;;2.70;99.90;;;;;;5096676;28;20204;-72
2022/01/17 13:00:12;;;;;;;22.53;14.17;;;2.80;99.90;;;;;;5095543;28;20699;-73